Time;durP1;ratioP1;P1;durP2;ratioP2;P2;SDS_P1;SDS_P2;PMS_P1;PMS_P2;Temp;Humidity;BMP_temperature;BMP_pressure;BME280_temperature;BME280_humidity;BME280_pressure;Samples;Min_cycle;Max_cycle;Signal;HPM_P1;HPM_P2
2022/12/04 00:04:19;;;;;;;97.10;44.83;;;-0.80;1.00;;;;;;10456516;28;20250;-86
2022/12/04 00:09:40;;;;;;;92.77;44.20;;;-0.80;1.00;;;;;;10491477;28;20431;-86
2022/12/04 00:15:01;;;;;;;101.97;44.43;;;-0.80;1.00;;;;;;10523072;28;20177;-84
2022/12/04 00:20:43;;;;;;;102.77;45.03;;;-0.80;1.00;;;;;;10507651;28;20251;-86
2022/12/04 00:26:07;;;;;;;105.30;47.30;;;-0.70;1.00;;;;;;10466633;28;20424;-83
2022/12/04 00:31:30;;;;;;;117.63;48.23;;;-0.70;1.00;;;;;;10430649;28;20204;-83
2022/12/04 00:36:51;;;;;;;102.50;46.70;;;-0.70;1.00;;;;;;10408182;28;20199;-86
2022/12/04 00:42:12;;;;;;;104.80;46.60;;;-0.70;1.00;;;;;;10465877;28;20285;-83
2022/12/04 00:47:34;;;;;;;111.27;46.03;;;-0.60;1.00;;;;;;10490041;28;20219;-82
2022/12/04 00:52:56;;;;;;;127.07;52.13;;;-0.70;1.00;;;;;;10475717;28;20209;-88
2022/12/04 00:58:17;;;;;;;133.67;56.17;;;-0.70;1.00;;;;;;10490906;28;20423;-84
2022/12/04 01:03:39;;;;;;;134.43;54.20;;;-0.70;1.00;;;;;;10448427;28;20388;-86
2022/12/04 01:09:03;;;;;;;108.60;47.33;;;-0.60;1.00;;;;;;10489187;28;20203;-85
2022/12/04 01:14:24;;;;;;;95.90;43.67;;;-0.60;1.00;;;;;;10489525;28;20208;-92
2022/12/04 01:19:45;;;;;;;107.77;46.03;;;-0.60;3.60;;;;;;10492075;28;20217;-82
2022/12/04 01:25:07;;;;;;;110.13;46.57;;;-0.50;18.10;;;;;;10485888;28;20271;-84
2022/12/04 01:30:29;;;;;;;95.77;43.87;;;-0.50;25.90;;;;;;10434006;28;20211;-85
2022/12/04 01:35:54;;;;;;;95.60;42.37;;;-0.50;20.30;;;;;;10446844;28;20193;-82
2022/12/04 01:41:19;;;;;;;101.53;44.80;;;-0.50;23.40;;;;;;10463558;28;20610;-88
2022/12/04 01:46:42;;;;;;;94.97;43.67;;;-0.50;19.90;;;;;;10449968;28;20198;-88
2022/12/04 01:52:28;;;;;;;87.70;41.63;;;-0.50;27.90;;;;;;10478527;28;20200;-87
2022/12/04 01:57:50;;;;;;;86.20;40.73;;;-0.40;43.30;;;;;;10446727;28;20499;-85
2022/12/04 02:03:12;;;;;;;95.97;42.27;;;-0.40;47.30;;;;;;10463362;28;20216;-90
2022/12/04 02:08:35;;;;;;;89.07;42.33;;;-0.30;41.50;;;;;;10473651;28;20192;-87
2022/12/04 02:14:17;;;;;;;97.93;41.67;;;-0.40;43.00;;;;;;10488123;28;20209;-88
2022/12/04 02:20:08;;;;;;;87.10;40.17;;;-0.30;58.90;;;;;;10487501;28;20216;-85
2022/12/04 02:25:47;;;;;;;102.53;41.83;;;-0.30;61.80;;;;;;10482268;28;20238;-86
2022/12/04 02:31:14;;;;;;;96.67;40.73;;;-0.30;49.60;;;;;;10462997;28;20219;-88
2022/12/04 02:36:43;;;;;;;102.10;43.37;;;-0.30;98.50;;;;;;10446705;28;20203;-90
2022/12/04 02:42:20;;;;;;;96.83;41.10;;;-0.20;72.60;;;;;;10433251;28;20225;-88
2022/12/04 02:47:44;;;;;;;107.00;43.43;;;-0.20;62.30;;;;;;10434715;28;20228;-82
2022/12/04 02:53:18;;;;;;;96.43;41.10;;;-0.30;76.70;;;;;;10439389;28;20492;-82
2022/12/04 02:58:52;;;;;;;88.70;40.43;;;-0.20;92.90;;;;;;10447611;28;20218;-82
2022/12/04 03:04:23;;;;;;;91.07;40.97;;;-0.20;79.50;;;;;;10497776;28;20181;-83
2022/12/04 03:09:50;;;;;;;87.63;38.50;;;-0.10;84.20;;;;;;10496639;28;20205;-82
2022/12/04 03:15:20;;;;;;;81.43;37.33;;;-0.10;83.20;;;;;;10496724;28;20488;-82
2022/12/04 03:20:46;;;;;;;82.93;37.20;;;0.00;70.80;;;;;;10497743;28;20419;-83
2022/12/04 03:26:22;;;;;;;91.87;41.00;;;0.00;45.70;;;;;;10499271;28;20563;-84
2022/12/04 03:32:20;;;;;;;83.07;39.07;;;0.00;34.70;;;;;;10451222;28;20279;-83
2022/12/04 03:38:03;;;;;;;91.33;38.53;;;0.00;38.80;;;;;;10380577;28;20236;-84
2022/12/04 03:43:48;;;;;;;85.40;38.30;;;0.00;52.50;;;;;;10366263;28;20238;-83
2022/12/04 03:49:25;;;;;;;87.73;38.77;;;0.00;60.40;;;;;;10382601;28;20506;-84
2022/12/04 03:54:59;;;;;;;88.10;39.20;;;0.00;83.90;;;;;;10366187;28;20515;-83
2022/12/04 04:00:21;;;;;;;78.20;35.30;;;0.00;63.90;;;;;;10365491;28;20243;-83
2022/12/04 04:05:49;;;;;;;84.10;38.37;;;0.00;91.60;;;;;;10399100;28;20204;-83
2022/12/04 04:11:13;;;;;;;78.27;36.97;;;0.00;93.20;;;;;;10439446;28;20215;-82
2022/12/04 04:28:00;;;;;;;68.23;34.13;;;0.20;99.90;;;;;;10463857;28;20203;-85
2022/12/04 04:33:23;;;;;;;65.33;33.17;;;0.20;99.90;;;;;;10434606;28;20507;-82
2022/12/04 04:39:00;;;;;;;60.50;32.93;;;0.30;99.90;;;;;;10462531;28;20198;-82
2022/12/04 04:44:28;;;;;;;58.90;30.43;;;0.20;99.90;;;;;;10462375;28;20284;-84
2022/12/04 04:49:52;;;;;;;64.70;31.50;;;0.30;99.90;;;;;;10434482;28;20496;-83
2022/12/04 04:55:16;;;;;;;60.53;31.67;;;0.30;99.90;;;;;;10447905;28;20205;-86
2022/12/04 05:00:38;;;;;;;62.23;31.93;;;0.30;99.90;;;;;;10433527;28;20235;-82
2022/12/04 05:05:59;;;;;;;60.30;30.17;;;0.40;99.90;;;;;;10467253;28;20259;-83
2022/12/04 05:11:20;;;;;;;58.07;31.10;;;0.40;96.60;;;;;;10487801;28;20204;-84
2022/12/04 05:16:41;;;;;;;57.53;29.80;;;0.40;99.90;;;;;;10474542;28;20499;-82
2022/12/04 05:22:03;;;;;;;64.00;31.17;;;0.40;99.90;;;;;;10474540;28;20245;-83
2022/12/04 05:27:25;;;;;;;58.10;31.33;;;0.40;99.90;;;;;;10470048;28;20265;-82
2022/12/04 05:32:46;;;;;;;61.50;31.73;;;0.40;93.30;;;;;;10446443;28;20209;-84
2022/12/04 05:38:08;;;;;;;57.50;30.10;;;0.40;75.80;;;;;;10464793;28;20195;-82
2022/12/04 05:43:30;;;;;;;60.07;30.60;;;0.40;99.50;;;;;;10447583;28;20308;-82
2022/12/04 05:48:51;;;;;;;64.57;32.60;;;0.40;99.90;;;;;;10460786;28;20269;-82
2022/12/04 05:54:12;;;;;;;68.37;32.03;;;0.50;99.90;;;;;;10433245;28;20202;-82
2022/12/04 05:59:34;;;;;;;57.30;30.77;;;0.50;99.90;;;;;;10459885;28;20454;-83
2022/12/04 06:04:55;;;;;;;57.17;29.07;;;0.50;99.90;;;;;;10457642;28;20275;-83
2022/12/04 06:10:16;;;;;;;58.43;30.03;;;0.50;99.90;;;;;;10487871;28;20213;-84
2022/12/04 06:15:39;;;;;;;58.77;30.20;;;0.60;99.90;;;;;;10473549;28;20283;-83
2022/12/04 06:21:01;;;;;;;54.37;28.57;;;0.50;99.90;;;;;;10473996;28;20253;-82
2022/12/04 06:26:24;;;;;;;53.90;29.03;;;0.60;99.90;;;;;;10482314;28;20254;-84
2022/12/04 06:31:45;;;;;;;75.40;43.83;;;0.60;99.90;;;;;;10475628;28;20193;-86
2022/12/04 06:37:06;;;;;;;49.07;28.87;;;0.60;99.90;;;;;;10470513;28;20190;-82
2022/12/04 06:42:27;;;;;;;46.67;26.87;;;0.60;99.90;;;;;;10466650;28;20237;-83
2022/12/04 06:47:49;;;;;;;52.73;26.80;;;0.50;99.90;;;;;;10439453;28;20193;-88
2022/12/04 06:53:10;;;;;;;51.40;27.03;;;0.60;99.90;;;;;;10456017;28;20213;-83
2022/12/04 06:58:31;;;;;;;56.83;27.20;;;0.60;99.90;;;;;;10438987;28;20213;-91
2022/12/04 07:03:53;;;;;;;59.17;28.77;;;0.60;99.90;;;;;;10455302;28;20532;-87
2022/12/04 07:09:16;;;;;;;63.20;30.90;;;0.50;99.90;;;;;;10494987;28;20197;-82
2022/12/04 07:14:37;;;;;;;63.60;30.80;;;0.60;99.90;;;;;;10510731;28;20224;-83
2022/12/04 07:19:58;;;;;;;69.80;33.60;;;0.60;99.90;;;;;;10479530;28;20220;-82
2022/12/04 07:25:19;;;;;;;64.17;33.47;;;0.60;99.90;;;;;;10475215;28;20433;-82
2022/12/04 07:30:41;;;;;;;60.13;30.87;;;0.60;99.90;;;;;;10454531;28;20524;-86
2022/12/04 07:36:06;;;;;;;60.53;31.13;;;0.60;99.90;;;;;;10450603;28;20201;-83
2022/12/04 07:41:27;;;;;;;71.13;35.60;;;0.70;99.90;;;;;;10452482;28;20306;-84
2022/12/04 07:46:48;;;;;;;66.13;32.40;;;0.70;99.90;;;;;;10454276;28;20190;-83
2022/12/04 07:52:09;;;;;;;79.83;37.40;;;0.70;99.90;;;;;;10438612;28;20277;-82
2022/12/04 07:57:31;;;;;;;72.87;35.87;;;0.60;99.90;;;;;;10450304;28;20466;-84
2022/12/04 08:02:52;;;;;;;73.50;31.73;;;0.70;99.90;;;;;;10459379;28;20222;-83
2022/12/04 08:08:14;;;;;;;76.30;35.13;;;0.70;99.90;;;;;;10503728;28;20272;-81
2022/12/04 08:13:35;;;;;;;74.03;36.03;;;0.70;99.90;;;;;;10493651;28;20269;-82
2022/12/04 08:18:57;;;;;;;85.90;38.03;;;0.70;99.90;;;;;;10493587;28;20255;-84
2022/12/04 08:24:18;;;;;;;82.03;39.83;;;0.70;99.90;;;;;;10493016;28;20236;-86
2022/12/04 08:29:39;;;;;;;73.77;35.07;;;0.70;99.90;;;;;;10426898;28;20227;-84
2022/12/04 08:35:01;;;;;;;74.03;35.07;;;0.80;99.90;;;;;;10441728;28;20504;-83
2022/12/04 08:40:22;;;;;;;71.90;32.13;;;0.80;99.90;;;;;;10450146;28;20439;-82
2022/12/04 08:45:43;;;;;;;74.53;36.43;;;0.80;99.90;;;;;;10434348;28;20271;-82
2022/12/04 08:51:07;;;;;;;81.13;35.83;;;0.80;99.90;;;;;;10436191;28;20210;-83
2022/12/04 08:56:29;;;;;;;81.67;36.77;;;0.80;99.90;;;;;;10452641;28;20272;-84
2022/12/04 09:01:50;;;;;;;83.47;35.37;;;0.80;99.90;;;;;;10420809;28;20258;-83
2022/12/04 09:07:11;;;;;;;89.67;40.53;;;0.90;99.90;;;;;;10464376;28;20194;-83
2022/12/04 09:12:32;;;;;;;73.97;36.30;;;0.90;99.90;;;;;;10489738;28;20205;-83
2022/12/04 09:17:54;;;;;;;72.00;32.13;;;0.90;99.90;;;;;;10475259;28;20199;-82
2022/12/04 09:23:15;;;;;;;86.93;37.27;;;0.90;99.90;;;;;;10505834;28;20233;-84
2022/12/04 09:28:36;;;;;;;71.50;33.97;;;0.90;99.90;;;;;;10466859;28;20194;-82
2022/12/04 09:33:59;;;;;;;88.10;37.70;;;0.90;99.90;;;;;;10450300;28;20201;-82
2022/12/04 09:39:20;;;;;;;84.10;38.50;;;0.90;99.90;;;;;;10462675;28;20203;-83
2022/12/04 09:45:02;;;;;;;73.23;33.77;;;1.00;99.90;;;;;;10446831;28;20498;-83
2022/12/04 09:50:22;;;;;;;83.53;37.20;;;0.90;99.90;;;;;;10447548;28;20225;-84
2022/12/04 09:55:57;;;;;;;85.47;37.30;;;0.90;99.90;;;;;;10449548;28;20193;-84
2022/12/04 10:01:24;;;;;;;79.10;35.33;;;0.90;99.90;;;;;;10454399;28;20413;-83
2022/12/04 10:06:53;;;;;;;82.80;35.70;;;1.00;99.90;;;;;;10497307;28;20236;-82
2022/12/04 10:12:33;;;;;;;87.83;35.70;;;1.00;99.90;;;;;;10496048;28;20191;-82
2022/12/04 10:18:15;;;;;;;86.43;39.43;;;1.00;99.90;;;;;;10499918;28;20199;-83
2022/12/04 10:23:52;;;;;;;90.03;38.47;;;1.00;99.90;;;;;;10495517;28;20283;-84
2022/12/04 10:29:23;;;;;;;80.53;37.87;;;1.00;99.90;;;;;;10420782;28;20211;-83
2022/12/04 10:34:47;;;;;;;88.70;38.93;;;1.00;99.90;;;;;;10443390;28;20212;-89
2022/12/04 10:40:30;;;;;;;79.80;37.43;;;1.00;99.90;;;;;;10452799;28;20307;-83
2022/12/04 10:45:51;;;;;;;76.57;33.87;;;1.00;99.90;;;;;;10443952;28;20232;-82
2022/12/04 10:51:18;;;;;;;82.17;38.43;;;1.00;99.90;;;;;;10469519;28;20194;-83
2022/12/04 10:56:56;;;;;;;87.93;38.83;;;0.90;99.90;;;;;;10462053;28;20201;-83
2022/12/04 11:02:26;;;;;;;82.37;34.60;;;1.00;99.90;;;;;;10462271;28;20279;-82
2022/12/04 11:07:50;;;;;;;85.17;37.00;;;1.10;99.90;;;;;;10495924;28;20202;-85
2022/12/04 11:13:11;;;;;;;86.43;38.57;;;1.10;99.90;;;;;;10489860;28;20228;-90
2022/12/04 11:18:45;;;;;;;82.80;38.63;;;1.20;99.90;;;;;;10504211;28;20200;-80
2022/12/04 11:24:21;;;;;;;98.83;43.23;;;1.10;99.90;;;;;;10499599;28;20422;-82
2022/12/04 11:29:44;;;;;;;87.63;39.57;;;1.10;99.90;;;;;;10465878;28;20394;-84
2022/12/04 11:35:13;;;;;;;83.17;38.20;;;1.10;99.90;;;;;;10456433;28;20204;-82
2022/12/04 11:40:36;;;;;;;85.97;37.93;;;1.10;99.90;;;;;;10462192;28;20277;-82
2022/12/04 11:46:00;;;;;;;77.70;35.47;;;1.20;99.90;;;;;;10450603;28;20202;-82
2022/12/04 11:51:50;;;;;;;89.43;38.57;;;1.10;99.90;;;;;;10475732;28;20262;-89
2022/12/04 11:57:39;;;;;;;78.80;36.63;;;1.10;99.90;;;;;;10436872;28;20519;-82
2022/12/04 12:03:09;;;;;;;83.40;39.77;;;1.10;99.90;;;;;;10395541;28;20239;-84
2022/12/04 12:08:54;;;;;;;83.73;38.30;;;1.20;99.90;;;;;;10490223;28;20221;-83
2022/12/04 12:14:43;;;;;;;73.03;33.83;;;1.20;99.90;;;;;;10494124;28;20250;-88
2022/12/04 12:20:33;;;;;;;77.23;37.90;;;1.10;99.90;;;;;;10338286;28;20205;-82
2022/12/04 12:26:11;;;;;;;81.43;37.50;;;1.10;99.90;;;;;;10329858;28;20241;-82
2022/12/04 12:31:49;;;;;;;84.40;37.47;;;1.10;99.90;;;;;;10298888;28;20206;-83
2022/12/04 12:37:19;;;;;;;78.30;36.13;;;1.00;99.90;;;;;;10284331;28;20400;-83
2022/12/04 12:42:56;;;;;;;87.47;39.43;;;1.10;99.90;;;;;;10301094;28;20464;-88
2022/12/04 12:48:33;;;;;;;76.87;34.93;;;1.10;99.90;;;;;;10304057;28;20233;-82
2022/12/04 12:54:03;;;;;;;78.37;35.90;;;1.00;99.90;;;;;;10351298;28;20218;-83
2022/12/04 12:59:26;;;;;;;83.90;35.43;;;1.10;99.90;;;;;;10451682;28;20195;-83
2022/12/04 13:04:51;;;;;;;83.00;34.57;;;1.00;99.90;;;;;;10445979;28;20359;-82
2022/12/04 13:10:29;;;;;;;81.57;35.80;;;1.00;99.90;;;;;;10480833;28;20192;-81
2022/12/04 13:15:56;;;;;;;70.30;33.33;;;1.00;99.90;;;;;;10480860;28;20248;-82
2022/12/04 13:21:30;;;;;;;79.23;35.70;;;1.00;99.90;;;;;;10476104;28;20252;-83
2022/12/04 13:27:01;;;;;;;78.07;34.43;;;1.00;99.90;;;;;;10473391;28;20198;-84
2022/12/04 13:33:03;;;;;;;66.63;29.57;;;1.00;99.90;;;;;;10464417;28;20194;-82
2022/12/04 13:39:21;;;;;;;74.00;31.50;;;1.00;99.90;;;;;;10447004;28;20495;-82
2022/12/04 13:44:42;;;;;;;77.13;34.57;;;1.00;99.90;;;;;;10378860;28;20306;-89
2022/12/04 13:50:18;;;;;;;61.17;28.63;;;1.00;99.90;;;;;;10363117;28;20228;-87
2022/12/04 13:55:40;;;;;;;71.73;29.90;;;1.10;99.90;;;;;;10365158;28;20209;-82
2022/12/04 14:01:11;;;;;;;66.33;31.50;;;1.00;99.90;;;;;;10332026;28;20455;-84
2022/12/04 14:06:38;;;;;;;66.30;30.93;;;1.00;99.90;;;;;;10386369;28;20210;-86
2022/12/04 14:12:02;;;;;;;63.10;30.87;;;1.00;99.90;;;;;;10405951;28;20569;-84
2022/12/04 14:17:30;;;;;;;75.40;33.87;;;1.00;99.90;;;;;;10473671;28;20206;-84
2022/12/04 14:22:52;;;;;;;73.53;34.43;;;1.00;99.90;;;;;;10473716;28;20291;-83
2022/12/04 14:28:24;;;;;;;83.83;37.40;;;1.00;99.90;;;;;;10449429;28;20194;-85
2022/12/04 14:33:54;;;;;;;77.00;34.30;;;0.90;99.90;;;;;;10477209;28;20201;-85
2022/12/04 14:39:35;;;;;;;81.03;36.20;;;1.00;99.90;;;;;;10432264;28;20259;-91
2022/12/04 14:44:59;;;;;;;77.47;33.57;;;1.00;99.90;;;;;;10437165;28;20234;-91
2022/12/04 14:50:45;;;;;;;83.97;35.83;;;1.00;99.90;;;;;;10453480;28;20202;-82
2022/12/04 14:56:21;;;;;;;81.47;35.67;;;1.00;99.90;;;;;;10455473;28;20215;-82
2022/12/04 15:01:44;;;;;;;82.30;36.43;;;1.00;99.90;;;;;;10410488;28;20226;-85
2022/12/04 15:07:05;;;;;;;91.47;38.17;;;1.00;99.90;;;;;;10469093;28;20191;-86
2022/12/04 15:12:33;;;;;;;94.80;37.37;;;0.90;99.90;;;;;;10496977;28;20381;-88
2022/12/04 15:17:59;;;;;;;93.87;39.33;;;0.90;99.90;;;;;;10507272;28;20501;-85
2022/12/04 15:23:27;;;;;;;83.07;34.27;;;0.90;99.90;;;;;;10509501;28;20263;-84
2022/12/04 15:29:01;;;;;;;82.20;34.57;;;0.90;99.90;;;;;;10454044;28;20209;-83
2022/12/04 15:34:59;;;;;;;84.70;35.87;;;0.90;99.90;;;;;;10476394;28;20389;-84
2022/12/04 15:40:24;;;;;;;82.93;36.43;;;0.90;99.90;;;;;;10366462;28;20217;-83
2022/12/04 15:45:45;;;;;;;96.83;41.57;;;0.90;99.90;;;;;;10366671;28;20405;-82
2022/12/04 15:51:07;;;;;;;88.13;37.23;;;0.80;99.90;;;;;;10380169;28;20286;-82
2022/12/04 15:56:28;;;;;;;84.60;38.37;;;0.80;99.90;;;;;;10365593;28;20246;-83
2022/12/04 16:01:50;;;;;;;99.00;40.83;;;0.80;99.90;;;;;;10379736;28;20568;-83
2022/12/04 16:07:23;;;;;;;92.80;37.70;;;0.80;99.90;;;;;;10381358;28;20205;-84
2022/12/04 16:12:54;;;;;;;113.53;41.53;;;0.90;99.90;;;;;;10427240;28;20626;-83
2022/12/04 16:18:15;;;;;;;90.23;40.07;;;0.90;99.90;;;;;;10478331;28;20210;-83
2022/12/04 16:23:36;;;;;;;91.50;41.00;;;0.90;99.90;;;;;;10476810;28;20246;-89
2022/12/04 16:28:58;;;;;;;99.10;39.83;;;0.90;99.90;;;;;;10418193;28;20202;-84
2022/12/04 16:34:20;;;;;;;85.00;38.30;;;0.90;99.90;;;;;;10434673;28;20213;-82
2022/12/04 16:39:41;;;;;;;84.93;38.20;;;0.90;99.90;;;;;;10436026;28;20204;-82
2022/12/04 16:45:04;;;;;;;89.10;38.60;;;0.90;99.90;;;;;;10490287;28;20528;-83
2022/12/04 16:50:26;;;;;;;102.67;42.37;;;0.90;99.90;;;;;;10489814;28;20193;-83
2022/12/04 16:55:51;;;;;;;91.23;40.57;;;0.90;99.90;;;;;;10489546;28;20250;-85
2022/12/04 17:01:27;;;;;;;90.50;39.57;;;0.80;99.90;;;;;;10458216;28;20229;-82
2022/12/04 17:06:48;;;;;;;88.37;41.17;;;0.80;99.90;;;;;;10460106;28;20204;-84
2022/12/04 17:12:09;;;;;;;90.90;38.97;;;0.90;99.90;;;;;;10506572;28;20269;-84
2022/12/04 17:17:31;;;;;;;99.33;42.13;;;0.90;99.90;;;;;;10492398;28;20201;-83
2022/12/04 17:22:52;;;;;;;86.73;38.27;;;0.90;99.90;;;;;;10488387;28;20468;-83
2022/12/04 17:28:13;;;;;;;75.83;35.70;;;0.90;99.90;;;;;;10436315;28;20206;-84
2022/12/04 17:33:35;;;;;;;101.80;43.83;;;0.90;99.90;;;;;;10431658;28;20195;-86
2022/12/04 17:38:58;;;;;;;86.37;42.60;;;0.90;99.90;;;;;;10439047;28;20228;-82
2022/12/04 17:44:19;;;;;;;89.63;40.63;;;0.90;99.90;;;;;;10472196;28;20222;-82
2022/12/04 17:49:40;;;;;;;90.50;42.13;;;0.90;99.90;;;;;;10456030;28;20415;-86
2022/12/04 17:55:02;;;;;;;94.53;43.13;;;0.90;99.90;;;;;;10447320;28;20198;-83
2022/12/04 18:00:24;;;;;;;80.70;39.37;;;0.90;99.90;;;;;;10432692;28;20208;-84
2022/12/04 18:05:45;;;;;;;86.20;39.10;;;0.90;99.90;;;;;;10486889;28;20218;-82
2022/12/04 18:11:07;;;;;;;91.00;38.90;;;0.80;99.90;;;;;;10512065;28;20201;-82
2022/12/04 18:16:30;;;;;;;83.23;37.17;;;0.80;99.90;;;;;;10509060;28;20185;-83
2022/12/04 18:21:51;;;;;;;93.00;41.13;;;0.90;99.90;;;;;;10511271;28;20224;-87
2022/12/04 18:27:12;;;;;;;86.20;41.13;;;0.80;99.90;;;;;;10494015;28;20197;-82
2022/12/04 18:32:34;;;;;;;90.90;39.83;;;0.80;99.90;;;;;;10456496;28;20201;-93
2022/12/04 18:37:55;;;;;;;84.67;38.50;;;0.80;99.90;;;;;;10468264;28;20198;-82
2022/12/04 18:43:35;;;;;;;78.63;36.73;;;0.80;99.90;;;;;;10504559;28;20228;-82
2022/12/04 18:49:13;;;;;;;73.97;35.77;;;0.80;99.90;;;;;;10529887;28;20189;-81
2022/12/04 18:54:50;;;;;;;74.60;33.60;;;0.80;99.90;;;;;;10519715;28;20216;-81
2022/12/04 19:00:26;;;;;;;77.40;37.13;;;0.70;99.90;;;;;;10490809;28;20202;-85
2022/12/04 19:05:50;;;;;;;76.13;34.33;;;0.80;99.90;;;;;;10473567;28;20247;-81
2022/12/04 19:11:17;;;;;;;75.17;33.47;;;0.80;99.90;;;;;;10489371;28;20201;-82
2022/12/04 19:16:39;;;;;;;67.57;32.43;;;0.80;99.90;;;;;;10497651;28;20205;-86
2022/12/04 19:22:01;;;;;;;62.03;30.60;;;0.80;99.90;;;;;;10483594;28;20243;-88
2022/12/04 19:27:22;;;;;;;64.30;32.67;;;0.80;99.90;;;;;;10485577;28;20225;-82
2022/12/04 19:32:48;;;;;;;70.93;31.03;;;0.80;99.90;;;;;;10471464;28;20203;-86
2022/12/04 19:38:10;;;;;;;67.80;31.17;;;0.70;99.90;;;;;;10456676;28;20209;-83
2022/12/04 19:43:33;;;;;;;73.30;32.53;;;0.70;99.90;;;;;;10473146;28;20267;-85
2022/12/04 19:48:57;;;;;;;67.57;29.97;;;0.80;99.90;;;;;;10430090;28;20205;-85
2022/12/04 19:54:20;;;;;;;70.70;31.87;;;0.80;99.90;;;;;;10472064;28;20229;-87
2022/12/04 19:59:42;;;;;;;58.90;28.47;;;0.80;99.90;;;;;;10455765;28;20234;-87
2022/12/04 20:05:06;;;;;;;61.67;28.83;;;0.80;99.90;;;;;;10466355;28;20231;-89
2022/12/04 20:10:27;;;;;;;57.67;29.63;;;0.80;99.90;;;;;;10493670;28;20205;-89
2022/12/04 20:15:49;;;;;;;59.53;28.17;;;0.70;99.90;;;;;;10510029;28;20185;-85
2022/12/04 20:21:11;;;;;;;58.73;27.40;;;0.80;99.90;;;;;;10481042;28;20202;-84
2022/12/04 20:26:37;;;;;;;55.60;27.87;;;0.80;99.90;;;;;;10465846;28;20308;-84
2022/12/04 20:31:58;;;;;;;56.17;27.37;;;0.70;99.90;;;;;;10466231;28;20261;-84
2022/12/04 20:37:19;;;;;;;54.00;26.43;;;0.70;99.90;;;;;;10435814;28;20197;-88
2022/12/04 20:42:40;;;;;;;64.50;27.90;;;0.70;99.90;;;;;;10465761;28;20546;-86
2022/12/04 20:48:02;;;;;;;54.40;26.30;;;0.70;99.90;;;;;;10449331;28;20247;-87
2022/12/04 20:53:23;;;;;;;56.53;26.47;;;0.70;99.90;;;;;;10435192;28;20504;-89
2022/12/04 20:58:44;;;;;;;51.60;24.30;;;0.70;99.90;;;;;;10434762;28;20282;-83
2022/12/04 21:04:06;;;;;;;50.90;24.53;;;0.70;99.90;;;;;;10466129;28;20297;-82
2022/12/04 21:09:27;;;;;;;64.97;27.90;;;0.70;99.90;;;;;;10489393;28;20549;-82
2022/12/04 21:20:30;;;;;;;50.80;24.07;;;0.70;99.90;;;;;;10501320;28;20201;-82
2022/12/04 21:25:54;;;;;;;52.87;24.67;;;0.70;99.90;;;;;;10480756;28;20270;-83
2022/12/04 21:31:15;;;;;;;52.27;23.33;;;0.80;99.90;;;;;;10447111;28;20459;-83
2022/12/04 21:36:36;;;;;;;51.50;24.87;;;0.80;99.90;;;;;;10454307;28;20555;-89
2022/12/04 21:47:37;;;;;;;63.20;27.40;;;0.80;99.90;;;;;;10452025;28;20283;-90
2022/12/04 21:52:59;;;;;;;72.67;27.73;;;0.70;99.90;;;;;;10452977;28;20204;-86
2022/12/04 21:58:21;;;;;;;48.43;25.43;;;0.80;99.90;;;;;;10450742;28;20229;-86
2022/12/04 22:03:43;;;;;;;44.07;23.20;;;0.70;99.90;;;;;;10473054;28;20228;-80
2022/12/04 22:09:09;;;;;;;43.80;22.87;;;0.70;99.90;;;;;;10486635;28;20201;-82
2022/12/04 22:14:31;;;;;;;36.43;21.17;;;0.70;99.90;;;;;;10484191;28;20455;-83
2022/12/04 22:19:54;;;;;;;34.83;20.77;;;0.70;99.90;;;;;;10497444;28;20241;-82
2022/12/04 22:25:15;;;;;;;38.03;20.87;;;0.70;99.90;;;;;;10483478;28;20232;-82
2022/12/04 22:30:37;;;;;;;37.60;21.80;;;0.70;99.90;;;;;;10474185;28;20201;-82
2022/12/04 22:36:06;;;;;;;40.43;22.60;;;0.70;99.90;;;;;;10472845;28;20208;-81
2022/12/04 22:41:27;;;;;;;39.67;21.47;;;0.70;99.90;;;;;;10467890;28;20207;-82
2022/12/04 22:46:48;;;;;;;32.47;19.17;;;0.60;99.90;;;;;;10482676;28;20576;-82
2022/12/04 22:52:09;;;;;;;36.53;21.17;;;0.60;99.90;;;;;;10439327;28;20210;-82
2022/12/04 22:57:33;;;;;;;37.17;20.13;;;0.60;99.90;;;;;;10466894;28;20196;-81
2022/12/04 23:02:54;;;;;;;37.43;22.17;;;0.60;99.90;;;;;;10397817;28;20234;-83
2022/12/04 23:08:15;;;;;;;40.37;21.40;;;0.70;99.90;;;;;;10505656;28;20475;-83
2022/12/04 23:13:36;;;;;;;41.30;21.60;;;0.60;99.90;;;;;;10481560;28;20204;-81
2022/12/04 23:18:58;;;;;;;39.63;22.90;;;0.70;99.90;;;;;;10493915;28;20196;-82
2022/12/04 23:24:19;;;;;;;40.40;19.77;;;0.60;99.90;;;;;;10478783;28;20242;-81
2022/12/04 23:29:40;;;;;;;36.90;20.00;;;0.60;99.90;;;;;;10429379;28;20576;-83
2022/12/04 23:35:12;;;;;;;37.47;20.33;;;0.60;99.90;;;;;;10449866;28;20277;-83
2022/12/04 23:40:33;;;;;;;35.37;18.53;;;0.60;99.90;;;;;;10467822;28;20273;-84
2022/12/04 23:45:55;;;;;;;37.43;20.63;;;0.60;99.90;;;;;;10437468;28;20471;-82
2022/12/04 23:51:18;;;;;;;38.43;19.27;;;0.50;99.90;;;;;;10450528;28;20197;-82
2022/12/04 23:56:39;;;;;;;34.40;19.17;;;0.60;99.90;;;;;;10450577;28;20248;-83
